Time;durP1;ratioP1;P1;durP2;ratioP2;P2;SDS_P1;SDS_P2;PMS_P1;PMS_P2;Temp;Humidity;BMP_temperature;BMP_pressure;BME280_temperature;BME280_humidity;BME280_pressure;Samples;Min_cycle;Max_cycle;Signal;HPM_P1;HPM_P2
2022/01/16 00:00:23;;;;;;;9.00;5.22;;;;;;;6.20;59.46;101868.84;5027805;28;20124;-81
2022/01/16 00:05:27;;;;;;;10.48;4.90;;;;;;;5.94;60.69;101860.75;5021942;28;20091;-81
2022/01/16 00:07:53;;;;;;;11.63;4.70;;;;;;;6.02;60.40;101879.75;5024825;28;20021;-81
2022/01/16 00:10:19;;;;;;;9.68;4.78;;;;;;;5.69;61.33;101883.50;5023382;28;20068;-81
2022/01/16 00:12:48;;;;;;;8.23;4.25;;;;;;;5.88;60.26;101896.75;5030781;28;20447;-81
2022/01/16 00:15:19;;;;;;;8.05;4.70;;;;;;;6.14;58.91;101881.66;5024841;28;20133;-81
2022/01/16 00:18:08;;;;;;;7.70;4.47;;;;;;;6.16;59.83;101884.28;5023139;28;20033;-81
2022/01/16 00:20:34;;;;;;;8.68;4.32;;;;;;;5.88;60.75;101877.81;5023344;28;20541;-82
2022/01/16 00:23:00;;;;;;;8.80;4.68;;;;;;;6.04;60.43;101870.31;5027736;28;20038;-82
2022/01/16 00:25:26;;;;;;;9.18;3.95;;;;;;;6.07;59.35;101874.66;5024209;28;20040;-81
2022/01/16 00:27:51;;;;;;;7.68;4.30;;;;;;;5.90;60.14;101879.56;5026027;28;20422;-81
2022/01/16 00:30:18;;;;;;;5.68;3.70;;;;;;;6.09;59.44;101867.84;5024652;28;20038;-81
2022/01/16 00:32:44;;;;;;;6.93;3.95;;;;;;;5.79;59.85;101870.81;5028286;28;20041;-81
2022/01/16 00:35:11;;;;;;;8.00;3.97;;;;;;;5.78;60.10;101871.63;5023698;28;20486;-81
2022/01/16 00:37:38;;;;;;;7.85;4.30;;;;;;;5.64;61.17;101862.81;5065016;28;20068;-81
2022/01/16 00:40:04;;;;;;;7.00;3.83;;;;;;;5.91;60.25;101868.44;5025345;28;20460;-84
2022/01/16 00:42:30;;;;;;;7.32;4.65;;;;;;;5.97;59.49;101862.50;5027376;28;20402;-82
2022/01/16 00:44:55;;;;;;;8.63;4.30;;;;;;;5.99;59.89;101873.69;5022462;28;20397;-82
2022/01/16 00:47:21;;;;;;;6.95;4.15;;;;;;;5.73;60.12;101906.81;5027354;28;20557;-81
2022/01/16 00:49:46;;;;;;;7.72;4.40;;;;;;;6.06;60.37;101900.44;5022063;28;20045;-82
2022/01/16 00:52:12;;;;;;;6.97;4.07;;;;;;;6.04;60.33;101890.09;5027247;28;20529;-82
2022/01/16 00:54:37;;;;;;;9.40;4.30;;;;;;;5.60;61.20;101904.84;5025539;28;20433;-82
2022/01/16 00:57:04;;;;;;;7.53;4.13;;;;;;;5.73;61.63;101903.34;5024021;28;20124;-82
2022/01/16 00:59:29;;;;;;;8.88;4.38;;;;;;;5.67;60.91;101895.50;5027261;28;20092;-82
2022/01/16 01:01:55;;;;;;;9.80;4.45;;;;;;;5.61;61.19;101904.00;5029171;28;20034;-81
2022/01/16 01:04:21;;;;;;;9.63;4.40;;;;;;;5.52;61.49;101929.63;5028321;28;20037;-81
2022/01/16 01:06:49;;;;;;;8.57;4.47;;;;;;;5.81;60.82;101915.53;5023963;28;20052;-76
2022/01/16 01:09:15;;;;;;;7.45;4.03;;;;;;;5.73;61.66;101923.97;5027391;28;20038;-82
2022/01/16 01:11:43;;;;;;;9.20;4.60;;;;;;;5.65;60.83;101916.13;5026997;28;20021;-82
2022/01/16 01:14:16;;;;;;;8.75;4.43;;;;;;;5.70;61.05;101932.53;5023008;28;20060;-82
2022/01/16 01:16:57;;;;;;;8.18;4.82;;;;;;;5.64;62.28;101937.56;5023389;28;20061;-82
2022/01/16 01:19:29;;;;;;;7.95;4.65;;;;;;;5.74;61.54;101929.13;5021465;28;20088;-81
2022/01/16 01:21:55;;;;;;;8.10;4.53;;;;;;;5.72;61.43;101941.16;5029162;28;20037;-82
2022/01/16 01:24:23;;;;;;;8.68;4.55;;;;;;;5.78;61.30;101971.31;5026985;28;20121;-81
2022/01/16 01:26:56;;;;;;;6.55;4.07;;;;;;;5.76;61.12;101961.00;5029352;28;21003;-82
2022/01/16 01:29:21;;;;;;;9.73;4.60;;;;;;;5.70;61.73;101965.16;5027983;28;20103;-82
2022/01/16 01:31:48;;;;;;;7.38;4.25;;;;;;;5.72;60.75;101929.97;5024834;28;20458;-81
2022/01/16 01:34:14;;;;;;;7.65;4.45;;;;;;;5.58;61.74;101873.03;5028859;28;20041;-82
2022/01/16 01:36:40;;;;;;;8.30;4.47;;;;;;;5.62;61.14;101877.41;5058975;28;20064;-82
2022/01/16 01:39:05;;;;;;;8.25;4.68;;;;;;;5.56;61.46;101863.53;5030210;28;20042;-81
2022/01/16 01:41:31;;;;;;;9.95;4.78;;;;;;;5.53;61.45;101869.50;5028495;28;20074;-81
2022/01/16 01:52:09;;;;;;;7.27;4.50;;;;;;;5.72;60.82;101915.38;5029774;28;20071;-82
2022/01/16 01:54:35;;;;;;;9.60;4.65;;;;;;;5.95;60.76;101924.34;5028223;28;20333;-82
2022/01/16 01:57:01;;;;;;;7.07;4.25;;;;;;;5.70;61.26;101934.22;5027178;28;20402;-82
2022/01/16 01:59:27;;;;;;;9.05;4.72;;;;;;;5.52;61.88;101947.66;5030413;28;20441;-82
2022/01/16 02:01:52;;;;;;;8.25;3.92;;;;;;;5.57;61.35;101945.16;5025702;28;20034;-82
2022/01/16 02:04:18;;;;;;;8.10;4.30;;;;;;;5.45;61.97;101966.41;5030291;28;20032;-82
2022/01/16 02:06:44;;;;;;;9.57;4.32;;;;;;;5.63;61.35;101948.72;5026288;28;20639;-82
2022/01/16 02:09:10;;;;;;;7.97;3.92;;;;;;;5.69;61.12;101947.94;5028636;28;20198;-82
2022/01/16 02:11:36;;;;;;;8.25;5.07;;;;;;;5.59;61.64;101962.41;5028520;28;20410;-82
2022/01/16 02:14:28;;;;;;;5.65;3.28;;;;;;;5.75;59.97;101964.41;5031166;28;20017;-82
2022/01/16 02:28:22;;;;;;;5.68;3.00;;;;;;;5.75;59.83;101986.72;5026470;28;20092;-82
2022/01/16 02:31:02;;;;;;;4.82;2.83;;;;;;;5.74;59.78;101995.31;5029998;28;20437;-82
2022/01/16 02:36:13;;;;;;;4.40;2.53;;;;;;;5.73;60.01;101991.00;5027649;28;20045;-82
2022/01/16 02:38:39;;;;;;;4.75;2.50;;;;;;;5.91;59.42;101987.06;5028233;28;20025;-82
2022/01/16 02:41:05;;;;;;;6.35;3.22;;;;;;;5.72;59.49;101974.66;5027920;28;20041;-82
2022/01/16 02:43:35;;;;;;;5.28;2.45;;;;;;;5.65;59.58;101964.22;5027559;28;20521;-82
2022/01/16 02:46:35;;;;;;;5.97;2.90;;;;;;;5.77;59.20;101954.97;5055672;28;20037;-82
2022/01/16 02:48:54;;;;;;;3.05;2.08;;;;;;;5.68;58.76;101947.13;5031216;28;20034;-82
2022/01/16 02:51:22;;;;;;;3.55;2.42;;;;;;;5.59;59.23;101948.66;5025651;28;20044;-82
2022/01/16 02:53:49;;;;;;;4.80;2.55;;;;;;;5.58;59.51;101944.31;5027230;28;20037;-81
2022/01/16 02:56:16;;;;;;;4.30;2.40;;;;;;;5.67;58.47;101931.59;5029280;28;20017;-82
2022/01/16 02:58:42;;;;;;;3.47;2.17;;;;;;;5.90;58.00;101913.09;5027290;28;20033;-82
2022/01/16 03:01:08;;;;;;;5.60;2.55;;;;;;;5.81;57.05;101912.94;5032620;28;20040;-82
2022/01/16 03:03:34;;;;;;;4.63;2.60;;;;;;;5.62;57.34;101904.88;5027239;28;20042;-82
2022/01/16 03:05:59;;;;;;;4.88;3.03;;;;;;;5.80;57.06;101900.88;5027545;28;20045;-82
2022/01/16 03:08:25;;;;;;;4.35;2.58;;;;;;;5.77;57.43;101892.25;5027301;28;20029;-82
2022/01/16 03:11:08;;;;;;;4.30;2.80;;;;;;;5.64;57.98;101885.16;5027279;28;20045;-82
2022/01/16 03:13:34;;;;;;;4.65;2.90;;;;;;;5.73;58.06;101885.31;5029490;28;20129;-82
2022/01/16 03:16:00;;;;;;;5.20;2.90;;;;;;;5.90;57.14;101878.69;5026472;28;20033;-82
2022/01/16 03:23:35;;;;;;;5.70;2.67;;;;;;;5.61;56.63;101873.09;5029611;28;20050;-81
2022/01/16 03:26:01;;;;;;;5.75;2.47;;;;;;;5.57;58.16;101873.84;5025606;28;20029;-81
2022/01/16 03:28:27;;;;;;;5.97;3.05;;;;;;;5.70;57.93;101877.50;5032623;28;20094;-81
2022/01/16 03:30:55;;;;;;;10.32;3.05;;;;;;;5.60;57.89;101871.34;5026387;28;20486;-81
2022/01/16 03:33:21;;;;;;;6.65;3.03;;;;;;;5.62;57.29;101868.81;5027089;28;20037;-81
2022/01/16 03:35:48;;;;;;;4.40;2.55;;;;;;;5.66;57.12;101865.41;5027837;28;20139;-81
2022/01/16 03:38:14;;;;;;;3.90;2.70;;;;;;;5.43;58.14;101872.75;5026537;28;20037;-81
2022/01/16 03:40:40;;;;;;;5.63;2.47;;;;;;;5.55;57.62;101864.38;5027437;28;20033;-81
2022/01/16 03:43:14;;;;;;;7.07;2.90;;;;;;;5.67;56.71;101875.75;5025037;28;20034;-81
2022/01/16 03:45:45;;;;;;;6.15;2.70;;;;;;;5.70;57.35;101869.78;5028717;28;20124;-81
2022/01/16 03:48:11;;;;;;;5.93;2.72;;;;;;;5.64;56.96;101867.09;5027071;28;20386;-81
2022/01/16 03:50:37;;;;;;;6.40;3.30;;;;;;;5.61;58.02;101859.31;5027850;28;20037;-81
2022/01/16 03:53:03;;;;;;;4.30;2.28;;;;;;;5.68;57.05;101868.91;5026172;28;20026;-81
2022/01/16 03:55:29;;;;;;;4.15;2.80;;;;;;;5.85;57.77;101878.63;5024739;28;20499;-81
2022/01/16 03:57:55;;;;;;;5.85;2.15;;;;;;;5.65;57.67;101877.47;5024513;28;20037;-81
2022/01/16 04:00:20;;;;;;;4.15;2.53;;;;;;;5.57;58.42;101879.00;5026094;28;20040;-81
2022/01/16 04:02:46;;;;;;;4.72;2.63;;;;;;;5.51;58.50;101885.75;5025709;28;20045;-81
2022/01/16 04:05:11;;;;;;;4.70;2.70;;;;;;;5.56;58.22;101874.72;5026777;28;20029;-81
2022/01/16 04:07:37;;;;;;;4.75;2.85;;;;;;;5.39;58.76;101889.00;5028010;28;20410;-81
2022/01/16 04:10:05;;;;;;;5.22;3.03;;;;;;;5.48;58.67;101884.00;5021223;28;21032;-81
2022/01/16 04:12:33;;;;;;;6.07;2.78;;;;;;;5.54;57.75;101876.38;5027424;28;20069;-81
2022/01/16 04:17:24;;;;;;;4.20;2.50;;;;;;;5.56;57.82;101866.13;5026496;28;20047;-81
2022/01/16 04:19:51;;;;;;;7.25;2.67;;;;;;;5.63;57.70;101873.97;5026332;28;20030;-81
2022/01/16 04:22:18;;;;;;;4.05;2.42;;;;;;;5.53;58.43;101879.81;5029158;28;20045;-81
2022/01/16 04:24:43;;;;;;;5.53;2.50;;;;;;;5.56;58.07;101879.88;5027754;28;20124;-81
2022/01/16 04:27:12;;;;;;;4.00;2.92;;;;;;;5.59;58.89;101879.94;5022054;28;20120;-81
2022/01/16 04:29:39;;;;;;;4.35;2.33;;;;;;;5.62;58.50;101892.88;5029080;28;20061;-81
2022/01/16 04:32:06;;;;;;;4.10;2.75;;;;;;;5.49;58.32;101893.47;5058523;28;20083;-81
2022/01/16 04:34:31;;;;;;;5.68;2.97;;;;;;;5.70;58.25;101886.13;5027376;28;20505;-81
2022/01/16 04:36:57;;;;;;;5.43;3.15;;;;;;;5.84;58.38;101894.94;5024615;28;20099;-81
2022/01/16 04:39:30;;;;;;;6.32;3.17;;;;;;;5.58;59.78;101897.94;5027599;28;20029;-81
2022/01/16 04:44:40;;;;;;;4.15;2.55;;;;;;;5.59;58.16;101903.13;5024074;28;20094;-81
2022/01/16 04:47:05;;;;;;;4.63;2.55;;;;;;;5.72;57.53;101891.28;5026842;28;20478;-81
2022/01/16 04:49:31;;;;;;;4.53;2.28;;;;;;;5.64;58.37;101888.59;5027415;28;20469;-81
2022/01/16 04:51:56;;;;;;;4.28;2.83;;;;;;;5.66;58.04;101891.19;5026067;28;20124;-81
2022/01/16 04:54:22;;;;;;;5.28;2.50;;;;;;;5.53;58.37;101897.00;5036658;28;20040;-81
2022/01/16 04:56:47;;;;;;;5.00;3.08;;;;;;;5.63;57.78;101909.19;5025915;28;20390;-81
2022/01/16 04:59:13;;;;;;;5.15;2.85;;;;;;;5.59;57.86;101903.13;5031901;28;20056;-81
2022/01/16 05:01:39;;;;;;;5.15;2.40;;;;;;;5.65;57.43;101898.06;5028598;28;20041;-81
2022/01/16 05:04:04;;;;;;;4.97;2.90;;;;;;;5.61;58.12;101903.13;5027907;28;20114;-81
2022/01/16 05:06:30;;;;;;;5.40;2.75;;;;;;;5.75;57.78;101894.78;5028900;28;20080;-81
2022/01/16 05:08:55;;;;;;;5.60;3.45;;;;;;;5.62;58.29;101895.44;5030611;28;20045;-81
2022/01/16 05:11:25;;;;;;;5.22;2.97;;;;;;;5.60;58.84;101906.53;5032454;28;20120;-81
2022/01/16 05:19:06;;;;;;;;;;;;;;;5.62;57.82;101908.34;5031067;28;20376;-81
2022/01/16 05:21:32;;;;;;;7.55;3.15;;;;;;;5.54;59.11;101903.84;5026027;28;19928;-81
2022/01/16 05:23:57;;;;;;;9.63;4.60;;;;;;;5.60;58.70;101901.38;5028943;28;20033;-81
2022/01/16 05:26:27;;;;;;;9.57;5.07;;;;;;;5.63;58.72;101902.31;5030674;28;20125;-81
2022/01/16 05:28:54;;;;;;;10.05;4.90;;;;;;;5.76;57.87;101900.81;5029654;28;20052;-81
2022/01/16 05:31:19;;;;;;;11.25;4.93;;;;;;;5.67;58.30;101903.25;5029047;28;20113;-81
2022/01/16 05:33:45;;;;;;;10.77;5.40;;;;;;;5.62;58.04;101907.47;5030224;28;20060;-81
2022/01/16 05:36:10;;;;;;;11.40;5.25;;;;;;;5.51;58.63;101901.22;5028882;28;20037;-81
2022/01/16 05:38:35;;;;;;;14.80;6.45;;;;;;;5.81;58.52;101902.63;5026817;28;20111;-81
2022/01/16 05:41:01;;;;;;;10.35;5.68;;;;;;;5.68;58.69;101899.84;5029815;28;20098;-81
2022/01/16 05:43:26;;;;;;;17.55;6.82;;;;;;;5.50;58.90;101902.97;5026917;28;20033;-81
2022/01/16 05:45:52;;;;;;;18.00;7.75;;;;;;;5.74;57.87;101903.34;5032608;28;20046;-81
2022/01/16 05:48:18;;;;;;;18.33;6.97;;;;;;;5.69;58.59;101907.56;5027936;28;20486;-81
2022/01/16 05:50:43;;;;;;;18.40;8.30;;;;;;;5.61;58.40;101904.00;5031668;28;20111;-81
2022/01/16 05:53:08;;;;;;;17.02;7.65;;;;;;;5.79;57.78;101904.31;5030403;28;20021;-81
2022/01/16 05:55:37;;;;;;;20.83;8.05;;;;;;;5.64;59.08;101900.63;5027032;28;20128;-81
2022/01/16 05:58:09;;;;;;;21.90;9.02;;;;;;;5.78;58.89;101905.16;5030424;28;20037;-81
2022/01/16 06:00:37;;;;;;;26.55;9.68;;;;;;;5.72;58.80;101904.19;5027805;28;20033;-81
2022/01/16 06:03:03;;;;;;;24.75;9.40;;;;;;;5.75;58.76;101904.22;5028272;28;20065;-81
2022/01/16 06:05:28;;;;;;;20.23;8.95;;;;;;;5.77;58.01;101900.00;5023794;28;20064;-81
2022/01/16 06:07:58;;;;;;;18.90;9.23;;;;;;;5.60;58.81;101896.22;5029555;28;20421;-81
2022/01/16 06:10:24;;;;;;;24.55;9.77;;;;;;;5.49;59.36;101906.38;5023592;28;20037;-82
2022/01/16 06:12:53;;;;;;;21.27;9.32;;;;;;;5.54;58.50;101912.47;5027907;28;20402;-81
2022/01/16 06:15:22;;;;;;;18.35;9.23;;;;;;;5.63;58.55;101911.75;5027900;28;20041;-81
2022/01/16 06:17:48;;;;;;;17.33;9.02;;;;;;;5.58;59.28;101914.25;5023618;28;20792;-81
2022/01/16 06:20:15;;;;;;;20.58;9.10;;;;;;;5.48;59.46;101914.94;5028703;28;20499;-81
2022/01/16 06:22:41;;;;;;;22.63;9.63;;;;;;;5.62;59.17;101917.78;5028189;28;20038;-81
2022/01/16 06:25:07;;;;;;;23.73;11.45;;;;;;;5.56;59.30;101915.09;5030332;28;21667;-81
2022/01/16 06:27:33;;;;;;;22.20;10.98;;;;;;;5.58;58.60;101911.69;5026854;28;20136;-81
2022/01/16 06:29:59;;;;;;;23.77;10.52;;;;;;;5.52;58.76;101913.28;5032850;28;20083;-81
2022/01/16 06:32:24;;;;;;;25.58;9.93;;;;;;;5.58;58.23;101914.25;5028666;28;20026;-81
2022/01/16 06:34:49;;;;;;;23.88;10.05;;;;;;;5.43;58.49;101914.88;5028559;28;20502;-81
2022/01/16 06:37:15;;;;;;;24.63;11.00;;;;;;;5.66;58.82;101911.81;5030543;28;20128;-81
2022/01/16 06:39:40;;;;;;;25.35;9.95;;;;;;;5.64;58.53;101903.19;5027982;28;20041;-81
2022/01/16 06:42:06;;;;;;;26.45;11.30;;;;;;;5.58;57.74;101897.94;5027598;28;20531;-81
2022/01/16 06:44:31;;;;;;;23.15;10.30;;;;;;;5.70;57.75;101908.44;5027985;28;20033;-80
2022/01/16 06:46:56;;;;;;;23.00;10.77;;;;;;;5.67;59.31;101906.69;5025704;28;20018;-81
2022/01/16 06:49:22;;;;;;;28.83;10.93;;;;;;;5.73;57.77;101904.22;5027544;28;20674;-81
2022/01/16 06:51:48;;;;;;;26.15;11.27;;;;;;;5.82;56.99;101901.78;5029119;28;20778;-81
2022/01/16 06:54:13;;;;;;;26.40;11.18;;;;;;;5.66;58.21;101904.06;5027337;28;20213;-81
2022/01/16 06:56:39;;;;;;;30.42;11.52;;;;;;;5.55;59.04;101916.78;5029113;28;20111;-81
2022/01/16 06:59:04;;;;;;;29.17;11.55;;;;;;;5.57;59.22;101921.97;5027561;28;20029;-81
2022/01/16 07:01:30;;;;;;;23.25;10.93;;;;;;;5.68;58.56;101921.34;5028419;28;20513;-81
2022/01/16 07:03:56;;;;;;;29.40;10.75;;;;;;;5.53;59.48;101930.50;5031326;28;20083;-81
2022/01/16 07:06:23;;;;;;;24.85;11.10;;;;;;;5.65;59.04;101934.16;5026639;28;20068;-80
2022/01/16 07:08:49;;;;;;;25.73;11.07;;;;;;;5.68;58.52;101928.19;5025874;28;20120;-81
2022/01/16 07:11:15;;;;;;;30.08;13.05;;;;;;;5.81;58.34;101925.84;5060594;28;20431;-81
2022/01/16 07:13:41;;;;;;;25.08;11.07;;;;;;;5.65;59.31;101928.13;5027645;28;20030;-81
2022/01/16 07:16:06;;;;;;;27.58;12.05;;;;;;;5.59;59.23;101928.91;5027127;28;20100;-81
2022/01/16 07:18:32;;;;;;;28.25;12.77;;;;;;;5.83;58.07;101921.56;5020988;28;20656;-81
2022/01/16 07:20:57;;;;;;;31.55;12.55;;;;;;;5.84;58.22;101925.88;5025363;28;20113;-81
2022/01/16 07:23:23;;;;;;;26.77;12.70;;;;;;;5.88;58.54;101927.69;5026838;28;20048;-80
2022/01/16 07:25:49;;;;;;;28.45;12.60;;;;;;;5.91;57.59;101932.91;5030306;28;20032;-81
2022/01/16 07:28:15;;;;;;;28.08;12.48;;;;;;;5.73;59.32;101942.03;5026915;28;20521;-81
2022/01/16 07:30:42;;;;;;;25.38;11.20;;;;;;;5.79;57.95;101935.25;5027203;28;20041;-81
2022/01/16 07:33:08;;;;;;;27.42;12.55;;;;;;;5.73;58.82;101949.75;5025199;28;20045;-81
2022/01/16 07:35:36;;;;;;;27.90;11.93;;;;;;;5.80;58.69;101949.88;5024467;28;20030;-81
2022/01/16 07:38:02;;;;;;;27.02;11.68;;;;;;;5.80;58.43;101962.75;5025389;28;20036;-81
2022/01/16 07:40:28;;;;;;;26.35;11.10;;;;;;;5.69;58.84;101959.13;5042185;28;20407;-81
2022/01/16 07:42:54;;;;;;;25.50;11.63;;;;;;;5.79;58.68;101962.75;5028634;28;20044;-81
2022/01/16 07:45:20;;;;;;;25.60;11.43;;;;;;;5.86;58.88;101949.13;5026584;28;20757;-81
2022/01/16 07:47:45;;;;;;;31.52;13.10;;;;;;;5.71;58.76;101957.44;5010538;28;20118;-81
2022/01/16 07:50:13;;;;;;;27.65;12.75;;;;;;;5.97;59.24;101970.81;5027175;28;20455;-81
2022/01/16 07:52:38;;;;;;;32.58;12.85;;;;;;;5.81;60.30;101977.41;5027403;28;20032;-81
2022/01/16 07:55:04;;;;;;;27.35;12.32;;;;;;;5.90;58.73;101969.81;5027521;28;20060;-81
2022/01/16 07:57:30;;;;;;;31.08;12.48;;;;;;;5.89;59.82;101973.25;5025274;28;20029;-81
2022/01/16 07:59:55;;;;;;;29.30;13.32;;;;;;;5.94;59.48;101975.91;5026771;28;20041;-81
2022/01/16 08:02:23;;;;;;;27.60;13.18;;;;;;;5.84;59.40;101980.03;5028868;28;20070;-81
2022/01/16 08:04:49;;;;;;;32.72;13.02;;;;;;;5.95;59.66;101983.66;5025917;28;20037;-81
2022/01/16 08:07:14;;;;;;;28.13;13.98;;;;;;;5.86;59.61;101972.34;5027938;28;20060;-81
2022/01/16 08:09:41;;;;;;;32.78;13.60;;;;;;;5.85;59.24;101971.47;5026435;28;20124;-82
2022/01/16 08:12:07;;;;;;;32.97;13.20;;;;;;;5.89;59.92;101972.41;5027925;28;20517;-81
2022/01/16 08:14:34;;;;;;;31.33;13.85;;;;;;;5.90;59.67;101977.56;5024450;28;20037;-83
2022/01/16 08:17:00;;;;;;;29.10;13.07;;;;;;;5.92;60.27;101980.19;5028605;28;20041;-83
2022/01/16 08:19:26;;;;;;;29.92;13.77;;;;;;;6.09;59.43;101975.31;5023842;28;21340;-81
2022/01/16 08:21:53;;;;;;;34.65;13.52;;;;;;;6.03;60.05;101969.22;5026719;28;20045;-80
2022/01/16 08:24:18;;;;;;;31.20;14.45;;;;;;;6.17;59.39;101966.84;5026038;28;20175;-81
2022/01/16 08:26:44;;;;;;;32.42;13.52;;;;;;;6.17;59.73;101969.41;5026723;28;20145;-81
2022/01/16 08:29:10;;;;;;;28.23;13.13;;;;;;;5.99;60.60;101982.88;5028542;28;20041;-81
2022/01/16 08:31:35;;;;;;;37.33;15.05;;;;;;;6.11;59.93;101977.06;5021373;28;20038;-81
2022/01/16 08:34:04;;;;;;;33.90;14.38;;;;;;;6.02;59.27;101982.94;5023521;28;20138;-81
2022/01/16 08:36:30;;;;;;;33.38;14.45;;;;;;;6.18;58.79;101983.19;5023706;28;20148;-81
2022/01/16 08:38:55;;;;;;;27.20;13.98;;;;;;;6.18;59.98;101985.78;5024566;28;20549;-81
2022/01/16 08:41:22;;;;;;;31.23;14.60;;;;;;;6.20;59.27;101977.22;5029077;28;20029;-81
2022/01/16 08:43:48;;;;;;;31.33;13.50;;;;;;;6.04;60.00;101991.56;5026506;28;20046;-81
2022/01/16 08:46:14;;;;;;;30.50;14.13;;;;;;;5.95;60.59;101996.56;5027865;28;20041;-81
2022/01/16 08:48:40;;;;;;;31.25;14.55;;;;;;;6.19;59.39;101998.69;5024101;28;20042;-81
2022/01/16 08:51:06;;;;;;;27.80;13.30;;;;;;;6.32;59.25;102002.34;5023217;28;20040;-81
2022/01/16 08:53:32;;;;;;;30.08;13.95;;;;;;;6.29;59.02;102008.31;5020163;28;20030;-80
2022/01/16 08:55:59;;;;;;;28.10;13.77;;;;;;;6.21;60.37;102022.81;5020931;28;20033;-81
2022/01/16 08:58:25;;;;;;;42.35;18.05;;;;;;;6.19;60.50;102021.06;5021499;28;20499;-81
2022/01/16 09:00:51;;;;;;;32.78;16.33;;;;;;;6.27;60.92;102020.34;5022853;28;20128;-80
2022/01/16 09:03:18;;;;;;;33.40;15.80;;;;;;;6.26;59.52;102022.88;5019435;28;20117;-81
2022/01/16 09:05:44;;;;;;;42.00;19.98;;;;;;;6.31;59.94;102023.81;5023398;28;20399;-81
2022/01/16 09:08:10;;;;;;;39.17;17.85;;;;;;;6.25;60.92;102023.72;5022611;28;20033;-81
2022/01/16 09:10:37;;;;;;;36.35;16.35;;;;;;;6.25;60.94;102028.88;5024140;28;20437;-82
2022/01/16 09:13:04;;;;;;;39.03;18.40;;;;;;;6.32;60.32;102029.00;5025123;28;20076;-82
2022/01/16 09:15:30;;;;;;;30.42;15.93;;;;;;;6.27;61.44;102034.94;5022900;28;20060;-80
2022/01/16 09:17:56;;;;;;;39.03;18.63;;;;;;;6.27;59.85;102035.81;5023349;28;20042;-80
2022/01/16 09:20:21;;;;;;;31.02;15.23;;;;;;;6.12;61.78;102045.00;5020319;28;20041;-80
2022/01/16 09:22:48;;;;;;;29.88;14.40;;;;;;;6.27;60.93;102047.84;5020903;28;20055;-79
2022/01/16 09:25:17;;;;;;;32.58;14.32;;;;;;;6.41;59.93;102044.66;5026900;28;20033;-81
2022/01/16 09:27:43;;;;;;;28.90;13.00;;;;;;;6.43;59.83;102052.41;5024968;28;20465;-80
2022/01/16 09:30:11;;;;;;;25.70;12.50;;;;;;;6.23;60.46;102048.63;5037457;28;20036;-80
2022/01/16 09:32:37;;;;;;;29.90;14.50;;;;;;;6.52;60.31;102053.47;5023206;28;20057;-79
2022/01/16 09:35:04;;;;;;;26.13;12.32;;;;;;;6.53;60.24;102052.63;5027151;28;20033;-80
2022/01/16 09:37:30;;;;;;;24.48;12.20;;;;;;;6.32;61.56;102065.16;5024261;28;20459;-80
2022/01/16 09:40:00;;;;;;;25.60;12.90;;;;;;;6.47;60.70;102059.38;5025623;28;20034;-80
2022/01/16 09:42:26;;;;;;;30.30;12.50;;;;;;;6.44;60.81;102060.19;5026890;28;20072;-79
2022/01/16 09:44:52;;;;;;;31.30;12.88;;;;;;;6.37;61.49;102058.34;5027655;28;20502;-80
2022/01/16 09:47:17;;;;;;;27.63;13.45;;;;;;;6.34;61.73;102054.84;5028072;28;20037;-80
2022/01/16 09:49:44;;;;;;;25.92;12.98;;;;;;;6.34;60.18;102060.00;5056449;28;20037;-80
2022/01/16 09:52:10;;;;;;;26.63;12.48;;;;;;;6.41;59.96;102064.44;5027959;28;20041;-80
2022/01/16 09:54:37;;;;;;;27.05;12.35;;;;;;;6.55;59.43;102057.81;5027555;28;20091;-80
2022/01/16 09:57:03;;;;;;;29.98;13.43;;;;;;;6.42;60.61;102059.31;5023271;28;20526;-79
2022/01/16 09:59:29;;;;;;;21.88;11.60;;;;;;;6.46;61.28;102073.09;5027901;28;20060;-79
2022/01/16 10:01:55;;;;;;;25.60;12.57;;;;;;;6.27;61.31;102071.94;5061797;28;20394;-79
2022/01/16 10:04:38;;;;;;;25.75;12.68;;;;;;;6.45;60.25;102064.53;5033203;28;20058;-79
2022/01/16 10:07:06;;;;;;;22.63;11.75;;;;;;;6.60;60.75;102060.47;5029079;28;20041;-79
2022/01/16 10:09:35;;;;;;;27.95;11.98;;;;;;;6.45;61.02;102059.34;5027493;28;20033;-79
2022/01/16 10:12:04;;;;;;;18.92;10.90;;;;;;;6.60;60.19;102060.47;5030791;28;20033;-79
2022/01/16 10:14:36;;;;;;;21.30;10.60;;;;;;;6.54;60.08;102061.25;5021888;28;20116;-79
2022/01/16 10:17:13;;;;;;;21.63;10.10;;;;;;;6.48;61.20;102064.56;5033107;28;20080;-79
2022/01/16 10:19:42;;;;;;;21.35;10.07;;;;;;;6.57;59.76;102069.88;5023239;28;20056;-79
2022/01/16 10:22:11;;;;;;;22.98;9.63;;;;;;;6.62;59.30;102059.66;5030173;28;20034;-79
2022/01/16 10:24:39;;;;;;;20.00;9.70;;;;;;;6.55;61.23;102062.97;5030315;28;20467;-79
2022/01/16 10:27:07;;;;;;;23.65;10.68;;;;;;;6.65;59.45;102064.84;5026619;28;20065;-79
2022/01/16 10:29:35;;;;;;;22.60;10.20;;;;;;;6.75;59.67;102058.13;5028218;28;20051;-79
2022/01/16 10:32:37;;;;;;;19.52;9.80;;;;;;;6.64;59.33;102055.38;5027967;28;20044;-79
2022/01/16 10:35:17;;;;;;;18.88;9.05;;;;;;;6.74;59.29;102052.09;5017568;28;20060;-79
2022/01/16 10:37:51;;;;;;;19.42;10.35;;;;;;;6.60;60.70;102051.03;5059697;28;20381;-79
2022/01/16 10:40:19;;;;;;;25.58;10.63;;;;;;;6.73;59.56;102059.81;5028165;28;20379;-79
2022/01/16 10:42:53;;;;;;;18.65;9.07;;;;;;;6.78;57.89;102056.44;5028457;28;20041;-79
2022/01/16 10:45:23;;;;;;;20.80;9.95;;;;;;;6.69;58.75;102058.03;5027001;28;20056;-79
2022/01/16 10:47:54;;;;;;;19.08;9.48;;;;;;;6.72;58.83;102066.72;5026758;28;20033;-79
2022/01/16 10:50:25;;;;;;;21.20;9.50;;;;;;;6.80;58.71;102062.50;5028540;28;20504;-79
2022/01/16 10:52:52;;;;;;;20.15;9.80;;;;;;;6.85;58.97;102062.56;5028487;28;20084;-82
2022/01/16 10:55:20;;;;;;;25.13;10.10;;;;;;;6.80;59.61;102069.38;5033462;28;20041;-82
2022/01/16 10:57:45;;;;;;;23.48;11.20;;;;;;;6.82;58.60;102063.41;5029255;28;20029;-82
2022/01/16 11:00:21;;;;;;;19.40;8.43;;;;;;;6.88;59.02;102060.03;5029359;28;20508;-81
2022/01/16 11:02:51;;;;;;;21.85;8.95;;;;;;;6.67;60.02;102063.16;5029898;28;20037;-82
2022/01/16 11:05:20;;;;;;;21.65;9.57;;;;;;;6.73;59.80;102063.25;5026830;28;20026;-82
2022/01/16 11:07:46;;;;;;;18.48;8.68;;;;;;;6.39;59.99;102073.88;5013173;28;20029;-82
2022/01/16 11:10:37;;;;;;;18.65;8.80;;;;;;;6.69;60.06;102061.50;5028494;28;20168;-81
2022/01/16 11:13:14;;;;;;;21.23;9.35;;;;;;;6.86;58.97;102064.31;5028222;28;20518;-82
2022/01/16 11:15:42;;;;;;;18.45;8.77;;;;;;;6.86;59.40;102067.78;5028193;28;20037;-82
2022/01/16 11:18:09;;;;;;;16.73;7.95;;;;;;;6.97;58.61;102062.75;5025390;28;20036;-82
2022/01/16 11:20:37;;;;;;;17.25;8.13;;;;;;;6.74;60.31;102061.56;5026960;28;20033;-82
2022/01/16 11:23:13;;;;;;;17.40;7.78;;;;;;;6.91;58.73;102063.53;5024500;28;21371;-82
2022/01/16 11:25:39;;;;;;;20.55;8.52;;;;;;;6.93;58.96;102072.16;5028769;28;20124;-82
2022/01/16 11:28:09;;;;;;;21.27;8.77;;;;;;;6.93;58.59;102067.00;5017501;28;20038;-82
2022/01/16 11:30:37;;;;;;;19.10;8.32;;;;;;;6.90;58.49;102073.88;5028210;28;20041;-82
2022/01/16 11:33:05;;;;;;;19.50;8.45;;;;;;;6.91;57.65;102073.88;5025284;28;20045;-82
2022/01/16 11:35:33;;;;;;;15.30;7.75;;;;;;;6.92;58.55;102069.56;5029525;28;20509;-82
2022/01/16 11:37:59;;;;;;;19.95;8.15;;;;;;;6.86;59.81;102078.09;5024970;28;20025;-82
2022/01/16 11:40:52;;;;;;;17.30;7.45;;;;;;;6.93;59.48;102076.50;5026267;28;20520;-82
2022/01/16 11:43:31;;;;;;;15.70;7.22;;;;;;;6.94;58.76;102079.06;5026119;28;20644;-82
2022/01/16 11:46:30;;;;;;;16.30;8.05;;;;;;;6.98;58.67;102083.47;5026260;28;20060;-82
2022/01/16 11:48:58;;;;;;;16.80;7.47;;;;;;;6.99;58.35;102085.16;5029016;28;20494;-82
2022/01/16 11:51:36;;;;;;;19.65;8.18;;;;;;;6.96;58.83;102079.97;5026398;28;20045;-82
2022/01/16 11:54:02;;;;;;;18.70;7.80;;;;;;;6.85;59.80;102088.41;5025075;28;20419;-82
2022/01/16 11:56:39;;;;;;;17.27;8.43;;;;;;;6.95;59.55;102090.28;5025410;28;20022;-82
2022/01/16 11:59:23;;;;;;;19.33;7.95;;;;;;;7.02;59.33;102092.97;5029302;28;20041;-82
2022/01/16 12:01:49;;;;;;;16.83;7.27;;;;;;;6.94;59.27;102093.69;5029939;28;20041;-82
2022/01/16 12:04:51;;;;;;;15.82;7.70;;;;;;;6.94;60.61;102088.53;5025716;28;20267;-82
2022/01/16 12:07:20;;;;;;;19.15;9.10;;;;;;;6.97;61.05;102086.00;5026637;28;20092;-82
2022/01/16 12:12:13;;;;;;;17.73;8.38;;;;;;;7.01;60.18;102083.50;5027601;28;20115;-82